createdAt,value
2023-08-10T00:00:33.607Z,3.45
2023-08-10T00:03:01.167Z,4.13
2023-08-10T00:05:29.298Z,3.80
2023-08-10T00:07:56.802Z,4.32
2023-08-10T00:10:24.136Z,3.67
2023-08-10T00:12:51.394Z,3.22
2023-08-10T00:15:19.141Z,3.97
2023-08-10T00:17:46.287Z,4.30
2023-08-10T00:20:14.120Z,3.72
2023-08-10T00:22:41.337Z,4.28
2023-08-10T00:25:08.925Z,4.07
2023-08-10T00:27:39.889Z,4.30
2023-08-10T00:30:10.956Z,4.88
2023-08-10T00:32:38.468Z,4.95
2023-08-10T00:35:06.044Z,4.18
2023-08-10T00:37:33.157Z,4.78
2023-08-10T00:40:00.376Z,4.63
2023-08-10T00:42:28.345Z,4.22
2023-08-10T00:44:55.675Z,4.80
2023-08-10T00:47:22.889Z,3.97
2023-08-10T00:49:50.128Z,3.38
2023-08-10T00:52:17.578Z,3.97
2023-08-10T00:54:45.020Z,3.40
2023-08-10T00:57:12.550Z,4.25
2023-08-10T00:59:40.210Z,30.90
2023-08-10T01:02:07.994Z,12.27
2023-08-10T01:04:35.448Z,15.57
2023-08-10T01:07:19.041Z,34.10
2023-08-10T01:09:56.104Z,29.15
2023-08-10T01:12:33.275Z,28.23
2023-08-10T01:15:17.646Z,8.20
2023-08-10T01:17:52.188Z,2.80
2023-08-10T01:20:24.682Z,2.85
2023-08-10T01:23:02.047Z,2.40
2023-08-10T01:25:30.629Z,2.35
2023-08-10T01:27:58.424Z,1.90
2023-08-10T01:30:25.898Z,2.05
2023-08-10T01:32:54.126Z,2.45
2023-08-10T01:35:21.696Z,4.80
2023-08-10T01:37:48.855Z,2.80
2023-08-10T01:40:17.462Z,2.25
2023-08-10T01:42:45.840Z,2.30
2023-08-10T01:45:14.091Z,2.08
2023-08-10T01:47:58.230Z,3.25
2023-08-10T01:50:27.840Z,3.60
2023-08-10T01:53:09.327Z,34.53
2023-08-10T01:55:37.148Z,15.63
2023-08-10T01:58:04.955Z,35.00
2023-08-10T02:00:34.681Z,7.22
2023-08-10T02:03:01.813Z,13.85
2023-08-10T02:05:29.119Z,29.48
2023-08-10T02:07:56.346Z,5.60
2023-08-10T02:10:23.834Z,2.55
2023-08-10T02:12:51.658Z,3.00
2023-08-10T02:15:19.490Z,2.28
2023-08-10T02:17:46.635Z,1.83
2023-08-10T02:20:14.299Z,2.10
2023-08-10T02:22:52.582Z,1.90
2023-08-10T02:25:21.206Z,2.05
2023-08-10T02:27:51.861Z,1.73
2023-08-10T02:30:19.919Z,2.30
2023-08-10T02:32:47.582Z,2.22
2023-08-10T02:35:15.656Z,2.45
2023-08-10T02:37:43.172Z,2.15
2023-08-10T02:40:13.025Z,2.35
2023-08-10T02:42:41.346Z,2.58
2023-08-10T02:45:10.237Z,2.50
2023-08-10T02:47:37.954Z,2.47
2023-08-10T02:50:08.378Z,2.47
2023-08-10T02:52:37.644Z,2.17
2023-08-10T02:55:05.379Z,2.25
2023-08-10T02:57:32.908Z,2.58
2023-08-10T03:00:00.420Z,2.30
2023-08-10T03:02:29.847Z,2.22
2023-08-10T03:05:00.774Z,2.60
2023-08-10T03:07:29.116Z,2.30
2023-08-10T03:09:57.406Z,1.98
2023-08-10T03:12:27.834Z,2.55
2023-08-10T03:14:55.458Z,2.40
2023-08-10T03:17:22.654Z,2.47
2023-08-10T03:19:52.392Z,3.40
2023-08-10T03:22:21.808Z,2.60
2023-08-10T03:24:49.312Z,2.63
2023-08-10T03:27:17.393Z,2.50
2023-08-10T03:29:45.571Z,2.75
2023-08-10T03:32:12.795Z,2.50
2023-08-10T03:34:40.002Z,2.55
2023-08-10T03:37:07.190Z,3.10
2023-08-10T03:39:34.383Z,3.40
2023-08-10T03:42:01.829Z,3.42
2023-08-10T03:44:28.972Z,3.72
2023-08-10T03:46:56.119Z,3.40
2023-08-10T03:49:24.264Z,3.17
2023-08-10T03:51:52.165Z,3.42
2023-08-10T03:54:19.458Z,3.33
2023-08-10T03:56:46.660Z,3.08
2023-08-10T03:59:15.113Z,3.00
2023-08-10T04:01:42.815Z,3.13
2023-08-10T04:04:09.979Z,3.38
2023-08-10T04:06:37.433Z,2.83
2023-08-10T04:09:06.168Z,3.05
2023-08-10T04:11:33.952Z,3.50
2023-08-10T04:14:01.143Z,3.70
2023-08-10T04:16:28.347Z,4.53
2023-08-10T04:18:55.869Z,4.22
2023-08-10T04:21:23.148Z,3.78
2023-08-10T04:23:50.301Z,3.78
2023-08-10T04:26:17.411Z,4.32
2023-08-10T04:28:44.671Z,5.65
2023-08-10T04:31:11.966Z,3.88
2023-08-10T04:33:39.152Z,3.70
2023-08-10T04:36:06.774Z,3.50
2023-08-10T04:38:34.269Z,2.78
2023-08-10T04:41:01.468Z,3.20
2023-08-10T04:43:28.645Z,3.17
2023-08-10T04:45:55.966Z,3.10
2023-08-10T04:48:23.149Z,3.30
2023-08-10T04:50:50.268Z,3.03
2023-08-10T04:53:17.879Z,2.95
2023-08-10T04:55:45.029Z,2.90
2023-08-10T04:58:12.297Z,2.92
2023-08-10T05:00:39.774Z,3.35
2023-08-10T05:03:07.009Z,3.00
2023-08-10T05:05:34.275Z,3.13
2023-08-10T05:08:01.787Z,2.70
2023-08-10T05:10:28.954Z,2.42
2023-08-10T05:12:56.146Z,2.95
2023-08-10T05:15:23.323Z,2.63
2023-08-10T05:17:50.571Z,2.90
2023-08-10T05:20:17.781Z,2.53
2023-08-10T05:22:45.008Z,2.50
2023-08-10T05:25:16.069Z,2.42
2023-08-10T05:27:46.402Z,2.78
2023-08-10T05:30:13.855Z,3.00
2023-08-10T05:32:45.034Z,3.05
2023-08-10T05:35:13.011Z,3.83
2023-08-10T05:37:40.399Z,2.97
2023-08-10T05:40:11.232Z,2.53
2023-08-10T05:42:39.703Z,3.13
2023-08-10T05:45:10.456Z,2.92
2023-08-10T05:47:37.991Z,2.60
2023-08-10T05:50:05.934Z,2.28
2023-08-10T05:52:33.309Z,2.65
2023-08-10T05:55:00.491Z,2.78
2023-08-10T05:57:27.682Z,2.83
2023-08-10T05:59:55.268Z,3.55
2023-08-10T06:02:22.514Z,3.38
2023-08-10T06:04:53.571Z,3.88
2023-08-10T06:07:21.159Z,4.78
2023-08-10T06:09:48.362Z,3.45
2023-08-10T06:12:17.562Z,3.92
2023-08-10T06:14:45.397Z,3.63
2023-08-10T06:17:13.024Z,2.80
2023-08-10T06:19:40.778Z,3.13
2023-08-10T06:22:08.098Z,3.50
2023-08-10T06:24:35.571Z,3.80
2023-08-10T06:27:03.308Z,3.90
2023-08-10T06:29:30.490Z,3.83
2023-08-10T06:31:57.563Z,3.53
2023-08-10T06:34:24.812Z,3.20
2023-08-10T06:36:53.511Z,2.90
2023-08-10T06:39:20.788Z,2.83
2023-08-10T06:41:47.933Z,2.80
2023-08-10T06:44:15.129Z,2.45
2023-08-10T06:46:42.601Z,2.92
2023-08-10T06:49:09.925Z,2.65
2023-08-10T06:51:37.292Z,2.30
2023-08-10T06:54:04.750Z,2.72
2023-08-10T06:56:32.088Z,2.90
2023-08-10T07:01:29.670Z,2.80
2023-08-10T07:03:57.051Z,2.75
2023-08-10T07:06:24.469Z,2.72
2023-08-10T07:08:54.274Z,2.75
2023-08-10T07:11:21.941Z,2.80
2023-08-10T07:13:50.330Z,2.60
2023-08-10T07:16:18.058Z,2.72
2023-08-10T07:18:45.420Z,2.70
2023-08-10T07:21:12.567Z,2.70
2023-08-10T07:23:39.815Z,2.83
2023-08-10T07:26:07.104Z,2.35
2023-08-10T07:28:34.200Z,3.33
2023-08-10T07:31:01.974Z,2.95
2023-08-10T07:33:29.323Z,4.72
2023-08-10T07:35:56.876Z,5.35
2023-08-10T07:38:24.584Z,4.88
2023-08-10T07:40:51.772Z,3.60
2023-08-10T07:43:18.924Z,3.15
2023-08-10T07:45:47.374Z,3.28
2023-08-10T07:48:14.650Z,5.60
2023-08-10T07:50:41.862Z,3.17
2023-08-10T07:53:09.151Z,2.88
2023-08-10T07:55:36.223Z,2.70
2023-08-10T07:58:03.421Z,2.45
2023-08-10T08:00:30.675Z,2.22
2023-08-10T08:02:57.894Z,3.08
2023-08-10T08:05:25.182Z,2.42
2023-08-10T08:07:52.271Z,2.20
2023-08-10T08:10:19.636Z,2.22
2023-08-10T08:12:46.828Z,2.97
2023-08-10T08:15:14.155Z,2.20
2023-08-10T08:18:18.958Z,2.65
2023-08-10T08:20:46.128Z,2.22
2023-08-10T08:23:13.250Z,2.05
2023-08-10T08:25:40.927Z,2.15
2023-08-10T08:28:08.393Z,2.55
2023-08-10T08:30:35.682Z,2.30
2023-08-10T08:33:03.312Z,2.30
2023-08-10T08:35:31.069Z,2.38
2023-08-10T08:37:58.227Z,2.30
2023-08-10T08:40:25.604Z,2.70
2023-08-10T08:42:53.788Z,2.45
2023-08-10T08:45:22.012Z,2.58
2023-08-10T08:47:49.651Z,1.92
2023-08-10T08:50:17.364Z,1.98
2023-08-10T08:52:45.088Z,1.90
2023-08-10T08:55:13.331Z,2.50
2023-08-10T08:57:40.738Z,2.47
2023-08-10T09:00:08.837Z,2.50
2023-08-10T09:02:36.719Z,2.13
2023-08-10T09:05:04.661Z,2.20
2023-08-10T09:07:32.261Z,2.00
2023-08-10T09:09:59.804Z,2.00
2023-08-10T09:12:37.218Z,2.05
2023-08-10T09:15:12.912Z,2.15
2023-08-10T09:17:47.466Z,2.65
2023-08-10T09:20:24.053Z,2.03
2023-08-10T09:22:56.567Z,2.00
2023-08-10T09:25:25.722Z,2.35
2023-08-10T09:27:54.287Z,2.08
2023-08-10T09:30:21.842Z,2.33
2023-08-10T09:32:49.066Z,2.13
2023-08-10T09:35:18.583Z,2.40
2023-08-10T09:37:49.669Z,3.05
2023-08-10T09:40:18.257Z,2.95
2023-08-10T09:42:45.436Z,3.50
2023-08-10T09:45:14.470Z,3.50
2023-08-10T09:47:43.865Z,3.50
2023-08-10T09:50:13.618Z,3.13
2023-08-10T09:52:42.250Z,3.60
2023-08-10T09:55:12.518Z,3.30
2023-08-10T09:57:45.350Z,3.28
2023-08-10T10:00:20.432Z,3.22
2023-08-10T10:02:48.572Z,3.38
2023-08-10T10:05:30.845Z,3.58
2023-08-10T10:08:04.185Z,3.20
2023-08-10T10:10:33.311Z,3.10
2023-08-10T10:13:02.807Z,2.97
2023-08-10T10:15:30.965Z,3.60
2023-08-10T10:17:59.104Z,3.55
2023-08-10T10:20:26.785Z,3.40
2023-08-10T10:22:54.034Z,3.63
2023-08-10T10:25:21.517Z,3.70
2023-08-10T10:27:52.206Z,3.72
2023-08-10T10:30:23.428Z,3.70
2023-08-10T10:32:51.829Z,3.55
2023-08-10T10:35:33.063Z,3.63
2023-08-10T10:38:01.082Z,3.55
2023-08-10T10:40:28.812Z,4.05
2023-08-10T10:43:02.082Z,3.92
2023-08-10T10:45:30.587Z,4.00
2023-08-10T10:47:58.408Z,4.13
2023-08-10T10:50:32.213Z,4.20
2023-08-10T10:53:04.671Z,3.90
2023-08-10T10:55:35.530Z,4.28
2023-08-10T10:58:04.380Z,4.47
2023-08-10T11:00:32.108Z,3.78
2023-08-10T11:03:00.388Z,3.90
2023-08-10T11:05:28.792Z,4.57
2023-08-10T11:07:56.918Z,4.38
2023-08-10T11:10:24.105Z,4.10
2023-08-10T11:12:53.392Z,3.75
2023-08-10T11:15:22.895Z,3.40
2023-08-10T11:17:54.528Z,3.70
2023-08-10T11:20:23.081Z,3.80
2023-08-10T11:22:51.192Z,3.50
2023-08-10T11:25:21.137Z,3.28
2023-08-10T11:27:50.744Z,3.42
2023-08-10T11:30:20.217Z,3.53
2023-08-10T11:32:49.740Z,3.15
2023-08-10T11:35:26.353Z,3.20
2023-08-10T11:37:55.051Z,3.15
2023-08-10T11:40:24.140Z,3.28
2023-08-10T11:43:04.893Z,2.65
2023-08-10T11:45:32.228Z,2.72
2023-08-10T11:50:33.380Z,3.42
2023-08-10T11:53:20.241Z,2.75
2023-08-10T11:55:52.085Z,2.90
2023-08-10T11:58:20.691Z,2.97
2023-08-10T12:00:55.099Z,2.67
2023-08-10T12:03:35.428Z,2.83
2023-08-10T12:06:08.951Z,2.80
2023-08-10T12:08:40.264Z,2.70
2023-08-10T12:11:16.575Z,3.05
2023-08-10T12:13:49.888Z,2.92
2023-08-10T12:16:19.456Z,3.05
2023-08-10T12:18:48.216Z,3.05
2023-08-10T12:21:15.780Z,3.28
2023-08-10T12:23:43.741Z,2.90
2023-08-10T12:26:13.428Z,3.40
2023-08-10T12:28:40.957Z,3.13
2023-08-10T12:31:10.190Z,2.90
2023-08-10T12:33:41.964Z,2.92
2023-08-10T12:36:09.394Z,2.85
2023-08-10T12:38:36.502Z,3.20
2023-08-10T12:41:03.732Z,3.10
2023-08-10T12:43:30.920Z,2.90
2023-08-10T12:45:58.149Z,3.67
2023-08-10T12:48:25.554Z,3.13
2023-08-10T12:50:52.744Z,3.25
2023-08-10T12:53:20.081Z,2.92
2023-08-10T12:55:47.308Z,3.03
2023-08-10T12:58:16.516Z,3.85
2023-08-10T13:00:43.747Z,2.70
2023-08-10T13:03:11.108Z,3.08
2023-08-10T13:05:38.311Z,3.70
2023-08-10T13:08:05.699Z,2.95
2023-08-10T13:10:34.089Z,2.80
2023-08-10T13:13:01.359Z,3.53
2023-08-10T13:15:29.131Z,3.10
2023-08-10T13:17:56.526Z,3.83
2023-08-10T13:20:23.943Z,3.00
2023-08-10T13:22:52.019Z,3.00
2023-08-10T13:25:19.301Z,3.53
2023-08-10T13:27:46.747Z,3.15
2023-08-10T13:30:16.641Z,3.38
2023-08-10T13:32:44.991Z,3.88
2023-08-10T13:35:12.207Z,3.35
2023-08-10T13:37:39.843Z,3.63
2023-08-10T13:40:08.443Z,3.13
2023-08-10T13:42:35.756Z,3.50
2023-08-10T13:45:03.047Z,3.80
2023-08-10T13:47:30.429Z,3.15
2023-08-10T13:49:57.758Z,2.90
2023-08-10T13:52:24.949Z,3.47
2023-08-10T13:54:52.339Z,3.28
2023-08-10T13:57:20.118Z,3.17
2023-08-10T13:59:48.223Z,3.13
2023-08-10T14:02:16.665Z,4.10
2023-08-10T14:04:44.280Z,4.03
2023-08-10T14:07:13.502Z,3.17
2023-08-10T14:09:42.025Z,3.33
2023-08-10T14:12:09.780Z,3.50
2023-08-10T14:14:37.446Z,2.88
2023-08-10T14:17:04.944Z,3.58
2023-08-10T14:19:32.191Z,2.92
2023-08-10T14:21:59.404Z,2.97
2023-08-10T14:24:26.672Z,3.50
2023-08-10T14:26:54.219Z,3.65
2023-08-10T14:29:21.530Z,2.90
2023-08-10T14:31:48.740Z,3.58
2023-08-10T14:34:16.427Z,3.88
2023-08-10T14:36:43.691Z,3.35
2023-08-10T14:39:10.839Z,3.08
2023-08-10T14:41:38.107Z,3.00
2023-08-10T14:44:05.589Z,3.10
2023-08-10T14:46:33.158Z,3.70
2023-08-10T14:49:01.902Z,4.07
2023-08-10T14:51:29.085Z,2.88
2023-08-10T14:53:56.488Z,3.15
2023-08-10T14:56:23.694Z,3.30
2023-08-10T14:58:51.204Z,2.95
2023-08-10T15:01:18.388Z,2.80
2023-08-10T15:03:45.612Z,2.92
2023-08-10T15:06:14.038Z,3.35
2023-08-10T15:08:41.348Z,3.08
2023-08-10T15:11:11.581Z,3.28
2023-08-10T15:13:38.763Z,3.20
2023-08-10T15:16:06.268Z,3.58
2023-08-10T15:18:33.481Z,3.50
2023-08-10T15:21:00.707Z,3.55
2023-08-10T15:25:58.071Z,3.67
2023-08-10T15:28:25.264Z,3.28
2023-08-10T15:30:52.418Z,3.38
2023-08-10T15:33:19.639Z,3.42
2023-08-10T15:35:46.803Z,3.55
2023-08-10T15:38:13.977Z,3.08
2023-08-10T15:40:41.043Z,3.25
2023-08-10T15:43:08.275Z,3.33
2023-08-10T15:45:36.679Z,3.40
2023-08-10T15:48:04.722Z,3.50
2023-08-10T15:50:32.860Z,3.92
2023-08-10T15:52:59.996Z,3.75
2023-08-10T15:55:27.238Z,3.95
2023-08-10T15:57:54.363Z,4.50
2023-08-10T16:00:22.124Z,3.97
2023-08-10T16:02:49.424Z,4.30
2023-08-10T16:05:16.699Z,3.20
2023-08-10T16:07:44.321Z,3.47
2023-08-10T16:10:11.628Z,3.25
2023-08-10T16:12:39.421Z,3.80
2023-08-10T16:15:07.537Z,3.90
2023-08-10T16:17:35.626Z,4.32
2023-08-10T16:20:04.401Z,3.30
2023-08-10T16:22:31.709Z,3.42
2023-08-10T16:24:58.933Z,3.42
2023-08-10T16:27:26.080Z,3.53
2023-08-10T16:29:53.281Z,3.13
2023-08-10T16:32:20.559Z,3.50
2023-08-10T16:34:47.852Z,3.33
2023-08-10T16:37:15.155Z,2.92
2023-08-10T16:39:42.600Z,3.50
2023-08-10T16:42:09.945Z,3.90
2023-08-10T16:44:37.337Z,4.20
2023-08-10T16:47:04.607Z,3.83
2023-08-10T16:49:32.700Z,3.40
2023-08-10T16:52:01.461Z,4.22
2023-08-10T16:54:28.663Z,4.47
2023-08-10T16:56:56.786Z,3.88
2023-08-10T16:59:24.181Z,3.65
2023-08-10T17:01:51.790Z,4.20
2023-08-10T17:04:19.884Z,4.25
2023-08-10T17:06:47.076Z,4.00
2023-08-10T17:09:14.788Z,4.07
2023-08-10T17:11:41.980Z,4.00
2023-08-10T17:14:09.569Z,3.47
2023-08-10T17:16:36.796Z,3.40
2023-08-10T17:19:04.121Z,3.15
2023-08-10T17:21:31.328Z,3.30
2023-08-10T17:23:58.576Z,3.28
2023-08-10T17:26:25.797Z,2.67
2023-08-10T17:28:55.629Z,3.33
2023-08-10T17:31:22.984Z,2.90
2023-08-10T17:33:50.251Z,2.83
2023-08-10T17:36:17.398Z,3.05
2023-08-10T17:38:44.715Z,2.65
2023-08-10T17:41:11.885Z,2.80
2023-08-10T17:43:39.086Z,2.85
2023-08-10T17:46:07.361Z,2.53
2023-08-10T17:48:34.541Z,2.67
2023-08-10T17:51:01.993Z,2.35
2023-08-10T17:53:29.298Z,3.05
2023-08-10T17:55:56.589Z,2.85
2023-08-10T17:58:23.883Z,3.33
2023-08-10T18:00:51.302Z,3.33
2023-08-10T18:03:19.395Z,3.03
2023-08-10T18:05:46.653Z,3.58
2023-08-10T18:08:13.878Z,3.65
2023-08-10T18:10:41.145Z,3.78
2023-08-10T18:13:08.339Z,3.13
2023-08-10T18:15:35.643Z,2.75
2023-08-10T18:18:02.935Z,3.03
2023-08-10T18:20:30.070Z,2.88
2023-08-10T18:22:57.313Z,2.80
2023-08-10T18:25:25.672Z,3.20
2023-08-10T18:27:52.903Z,3.42
2023-08-10T18:30:20.572Z,3.00
2023-08-10T18:32:47.906Z,2.97
2023-08-10T18:35:15.811Z,2.95
2023-08-10T18:37:43.142Z,3.10
2023-08-10T18:40:11.168Z,3.17
2023-08-10T18:42:38.548Z,3.22
2023-08-10T18:45:06.467Z,3.65
2023-08-10T18:47:34.216Z,2.95
2023-08-10T18:50:01.601Z,3.17
2023-08-10T18:52:28.955Z,3.25
2023-08-10T18:54:56.168Z,3.08
2023-08-10T18:57:23.338Z,2.97
2023-08-10T18:59:50.572Z,3.08
2023-08-10T19:02:17.824Z,3.10
2023-08-10T19:04:45.236Z,3.67
2023-08-10T19:07:13.834Z,3.92
2023-08-10T19:09:41.131Z,3.92
2023-08-10T19:12:08.725Z,3.40
2023-08-10T19:14:36.171Z,3.70
2023-08-10T19:17:03.671Z,3.78
2023-08-10T19:19:30.718Z,3.35
2023-08-10T19:21:58.353Z,3.30
2023-08-10T19:24:25.565Z,3.50
2023-08-10T19:26:52.898Z,3.45
2023-08-10T19:29:20.130Z,4.20
2023-08-10T19:31:47.441Z,4.78
2023-08-10T19:34:14.680Z,3.90
2023-08-10T19:36:41.911Z,3.78
2023-08-10T19:39:09.085Z,4.35
2023-08-10T19:41:36.284Z,4.68
2023-08-10T19:44:03.937Z,4.10
2023-08-10T19:46:31.269Z,3.67
2023-08-10T19:48:58.433Z,4.10
2023-08-10T19:51:25.683Z,4.35
2023-08-10T19:53:53.203Z,3.80
2023-08-10T19:56:20.498Z,3.95
2023-08-10T19:58:47.792Z,4.25
2023-08-10T20:01:19.233Z,4.28
2023-08-10T20:03:48.458Z,4.00
2023-08-10T20:06:15.855Z,3.88
2023-08-10T20:08:43.112Z,4.07
2023-08-10T20:11:10.328Z,3.60
2023-08-10T20:13:37.530Z,3.33
2023-08-10T20:16:06.691Z,3.78
2023-08-10T20:18:34.306Z,3.85
2023-08-10T20:21:01.576Z,3.60
2023-08-10T20:23:29.145Z,3.65
2023-08-10T20:25:56.320Z,3.40
2023-08-10T20:28:23.538Z,4.18
2023-08-10T20:30:50.886Z,4.07
2023-08-10T20:33:18.809Z,3.65
2023-08-10T20:35:47.021Z,4.30
2023-08-10T20:38:14.229Z,3.78
2023-08-10T20:40:41.343Z,3.80
2023-08-10T20:43:08.573Z,3.60
2023-08-10T20:45:36.118Z,4.03
2023-08-10T20:48:03.692Z,4.10
2023-08-10T20:50:31.383Z,4.10
2023-08-10T20:52:58.563Z,4.30
2023-08-10T20:55:25.898Z,5.00
2023-08-10T20:57:53.160Z,4.95
2023-08-10T21:00:20.475Z,5.43
2023-08-10T21:02:47.717Z,5.65
2023-08-10T21:05:15.012Z,5.95
2023-08-10T21:07:42.277Z,5.90
2023-08-10T21:10:09.916Z,6.10
2023-08-10T21:12:37.176Z,6.10
2023-08-10T21:15:08.906Z,6.50
2023-08-10T21:17:38.041Z,5.82
2023-08-10T21:20:07.293Z,5.88
2023-08-10T21:22:34.799Z,6.38
2023-08-10T21:25:01.955Z,4.97
2023-08-10T21:27:29.278Z,5.15
2023-08-10T21:29:56.451Z,4.75
2023-08-10T21:32:23.631Z,6.63
2023-08-10T21:34:50.816Z,6.78
2023-08-10T21:37:17.926Z,6.45
2023-08-10T21:39:46.440Z,6.78
2023-08-10T21:42:14.875Z,6.70
2023-08-10T21:44:42.107Z,6.40
2023-08-10T21:47:09.593Z,6.05
2023-08-10T21:49:37.141Z,6.40
2023-08-10T21:52:04.395Z,7.10
2023-08-10T21:54:31.693Z,7.03
2023-08-10T21:57:01.158Z,8.45
2023-08-10T21:59:33.335Z,8.00
2023-08-10T22:02:00.807Z,8.25
2023-08-10T22:04:28.094Z,8.32
2023-08-10T22:06:55.320Z,10.68
2023-08-10T22:09:22.474Z,9.68
2023-08-10T22:11:49.624Z,9.23
2023-08-10T22:14:16.843Z,7.43
2023-08-10T22:16:44.196Z,6.47
2023-08-10T22:19:11.572Z,5.78
2023-08-10T22:21:39.084Z,5.20
2023-08-10T22:24:06.671Z,4.90
2023-08-10T22:26:34.079Z,4.78
2023-08-10T22:29:01.232Z,4.43
2023-08-10T22:31:30.501Z,4.07
2023-08-10T22:33:57.798Z,4.00
2023-08-10T22:36:24.896Z,3.67
2023-08-10T22:38:52.161Z,3.30
2023-08-10T22:41:19.359Z,3.75
2023-08-10T22:43:46.602Z,3.30
2023-08-10T22:46:14.100Z,2.97
2023-08-10T22:48:41.310Z,3.60
2023-08-10T22:51:12.457Z,2.92
2023-08-10T22:53:39.744Z,3.38
2023-08-10T22:56:06.854Z,3.03
2023-08-10T22:58:34.520Z,3.38
2023-08-10T23:01:02.106Z,3.10
2023-08-10T23:03:29.273Z,3.40
2023-08-10T23:05:56.548Z,3.22
2023-08-10T23:08:23.966Z,3.35
2023-08-10T23:10:51.306Z,3.40
2023-08-10T23:13:18.825Z,3.78
2023-08-10T23:15:46.262Z,3.05
2023-08-10T23:18:13.527Z,3.10
2023-08-10T23:20:41.706Z,3.60
2023-08-10T23:23:08.931Z,3.22
2023-08-10T23:25:38.022Z,3.30
2023-08-10T23:28:05.731Z,3.38
2023-08-10T23:30:32.865Z,3.17
2023-08-10T23:33:00.185Z,3.13
2023-08-10T23:35:27.795Z,3.58
2023-08-10T23:37:57.419Z,3.30
2023-08-10T23:40:24.691Z,3.88
2023-08-10T23:42:51.930Z,3.38
2023-08-10T23:45:19.466Z,3.25
2023-08-10T23:47:47.585Z,3.35
2023-08-10T23:50:14.866Z,3.25
2023-08-10T23:52:44.201Z,3.50
2023-08-10T23:55:11.582Z,3.47
2023-08-10T23:57:38.966Z,3.35
